Time;durP1;ratioP1;P1;durP2;ratioP2;P2;SDS_P1;SDS_P2;PMS_P1;PMS_P2;Temp;Humidity;BMP_temperature;BMP_pressure;BME280_temperature;BME280_humidity;BME280_pressure;Samples;Min_cycle;Max_cycle;Signal;HPM_P1;HPM_P2
2021/09/28 00:01:43;;;;;;;2.60;2.40;;;19.10;83.60;;;;;;10541056;28;20216;-61
2021/09/28 00:07:06;;;;;;;2.87;2.33;;;19.10;83.60;;;;;;10541034;28;20561;-59
2021/09/28 00:12:28;;;;;;;2.63;2.10;;;19.00;83.50;;;;;;10540251;28;20215;-59
2021/09/28 00:17:51;;;;;;;2.03;1.90;;;19.10;83.60;;;;;;10539168;28;20593;-61
2021/09/28 00:23:15;;;;;;;2.40;2.20;;;19.10;83.60;;;;;;10538293;28;20207;-61
2021/09/28 00:28:37;;;;;;;2.73;1.90;;;19.00;83.50;;;;;;10544809;28;20261;-60
2021/09/28 00:34:01;;;;;;;2.40;2.03;;;19.00;83.50;;;;;;10546102;28;20234;-62
2021/09/28 00:39:23;;;;;;;4.17;2.20;;;19.00;83.50;;;;;;10542698;28;20598;-60
2021/09/28 00:44:46;;;;;;;2.87;2.00;;;19.00;83.50;;;;;;10546372;28;20192;-62
2021/09/28 00:50:11;;;;;;;2.80;1.93;;;19.00;83.40;;;;;;10544409;28;20215;-61
2021/09/28 00:55:33;;;;;;;2.20;2.00;;;19.00;83.50;;;;;;10520784;28;20216;-63
2021/09/28 01:00:55;;;;;;;2.37;1.90;;;19.00;83.40;;;;;;10542579;28;20222;-63
2021/09/28 01:06:19;;;;;;;2.57;1.80;;;19.00;83.40;;;;;;10538932;28;20200;-63
2021/09/28 01:11:41;;;;;;;2.23;1.87;;;19.00;83.40;;;;;;10531073;28;20224;-63
2021/09/28 01:17:04;;;;;;;2.17;1.70;;;19.00;83.40;;;;;;10529775;28;20212;-63
2021/09/28 01:22:27;;;;;;;2.03;1.83;;;19.00;83.40;;;;;;10529703;28;20216;-63
2021/09/28 01:27:50;;;;;;;2.70;2.00;;;19.00;83.40;;;;;;10542089;28;20196;-62
2021/09/28 01:33:12;;;;;;;2.47;1.90;;;19.00;83.40;;;;;;10543970;28;20306;-62
2021/09/28 01:38:36;;;;;;;2.53;1.70;;;19.00;83.30;;;;;;10544488;28;20684;-62
2021/09/28 01:44:06;;;;;;;1.40;1.30;;;19.00;83.40;;;;;;10543294;28;20208;-61
2021/09/28 01:49:28;;;;;;;2.90;1.90;;;19.00;83.30;;;;;;10509721;28;20566;-61
2021/09/28 01:54:51;;;;;;;2.10;1.60;;;19.00;83.30;;;;;;10501509;28;20224;-62
2021/09/28 02:00:14;;;;;;;2.73;1.57;;;19.00;83.30;;;;;;10505965;28;20214;-62
2021/09/28 02:05:36;;;;;;;1.97;1.50;;;19.00;83.30;;;;;;10504870;28;20196;-63
2021/09/28 02:11:00;;;;;;;1.50;1.40;;;19.00;83.30;;;;;;10506916;28;20223;-63
2021/09/28 02:16:22;;;;;;;1.63;1.40;;;19.00;83.30;;;;;;10498392;28;20681;-63
2021/09/28 02:21:44;;;;;;;2.07;1.50;;;19.00;83.30;;;;;;10509752;28;20216;-62
2021/09/28 02:27:08;;;;;;;2.17;1.47;;;19.00;83.30;;;;;;10509766;28;20212;-62
2021/09/28 02:32:30;;;;;;;1.70;1.40;;;19.00;83.30;;;;;;10515084;28;20877;-63
2021/09/28 02:37:52;;;;;;;2.30;1.43;;;19.00;83.30;;;;;;10543238;28;20657;-62
2021/09/28 02:43:15;;;;;;;1.70;1.50;;;19.00;83.20;;;;;;10542053;28;20696;-63
2021/09/28 02:48:37;;;;;;;1.93;1.40;;;19.00;83.20;;;;;;10514460;28;20192;-61
2021/09/28 02:54:00;;;;;;;1.50;1.40;;;19.00;83.20;;;;;;10500059;28;20590;-60
2021/09/28 02:59:23;;;;;;;1.20;1.10;;;19.00;83.20;;;;;;10499645;28;20573;-60
2021/09/28 03:04:45;;;;;;;1.73;1.27;;;19.00;83.20;;;;;;10532133;28;20199;-61
2021/09/28 03:10:08;;;;;;;3.10;1.60;;;19.00;83.20;;;;;;10539652;28;20204;-62
2021/09/28 03:15:31;;;;;;;2.33;1.23;;;19.00;83.20;;;;;;10534935;28;20220;-63
2021/09/28 03:20:53;;;;;;;1.47;1.10;;;19.00;83.10;;;;;;10495203;28;20208;-61
2021/09/28 03:26:15;;;;;;;1.57;1.30;;;18.90;83.10;;;;;;10497639;28;20554;-60
2021/09/28 03:31:39;;;;;;;1.30;1.00;;;19.00;83.10;;;;;;10519211;28;20220;-63
2021/09/28 03:37:01;;;;;;;1.33;1.10;;;19.00;83.10;;;;;;10540385;28;20580;-62
2021/09/28 03:42:23;;;;;;;2.30;1.30;;;19.00;83.10;;;;;;10540133;28;20216;-62
2021/09/28 03:47:47;;;;;;;1.80;1.00;;;19.00;83.10;;;;;;10519745;28;20188;-61
2021/09/28 03:53:09;;;;;;;1.33;1.00;;;19.00;83.10;;;;;;10518344;28;20223;-62
2021/09/28 03:58:31;;;;;;;2.20;1.47;;;18.90;83.00;;;;;;10507323;28;20198;-62
2021/09/28 04:03:54;;;;;;;1.30;1.20;;;19.00;83.00;;;;;;10513302;28;20235;-61
2021/09/28 04:09:16;;;;;;;1.40;0.90;;;18.90;83.00;;;;;;10513116;28;20196;-62
2021/09/28 04:14:40;;;;;;;1.87;1.20;;;19.00;83.00;;;;;;10545607;28;20717;-62
2021/09/28 04:20:04;;;;;;;1.73;1.10;;;19.00;82.90;;;;;;10514053;28;20342;-62
2021/09/28 04:25:26;;;;;;;4.60;1.53;;;18.90;82.80;;;;;;10548273;28;20192;-62
2021/09/28 04:30:48;;;;;;;1.53;0.87;;;19.00;82.80;;;;;;10544291;28;20230;-62
2021/09/28 04:36:12;;;;;;;2.03;1.13;;;19.00;82.80;;;;;;10505038;28;20216;-62
2021/09/28 04:41:34;;;;;;;1.47;0.93;;;19.00;82.80;;;;;;10534639;28;20219;-61
2021/09/28 04:46:56;;;;;;;2.27;1.10;;;19.00;82.80;;;;;;10548529;28;20199;-60
2021/09/28 04:52:20;;;;;;;2.50;1.00;;;18.90;82.80;;;;;;10506183;28;20224;-63
2021/09/28 04:57:42;;;;;;;1.93;1.00;;;18.90;82.80;;;;;;10500355;28;20216;-62
2021/09/28 05:03:04;;;;;;;3.00;1.13;;;19.00;82.80;;;;;;10504092;28;20572;-63
2021/09/28 05:08:27;;;;;;;1.10;0.80;;;19.00;82.90;;;;;;10547952;22;20737;-68
2021/09/28 05:13:50;;;;;;;1.83;1.00;;;18.90;82.90;;;;;;10487416;28;20244;-69
2021/09/28 05:19:12;;;;;;;2.77;1.30;;;18.90;82.90;;;;;;10484624;28;20209;-67
2021/09/28 05:24:35;;;;;;;3.90;1.57;;;18.90;83.00;;;;;;10487819;28;20203;-68
2021/09/28 05:29:57;;;;;;;2.93;1.03;;;18.90;82.50;;;;;;10495944;28;20629;-68
2021/09/28 05:35:20;;;;;;;1.87;1.10;;;18.80;82.50;;;;;;10455985;28;20210;-67
2021/09/28 05:40:43;;;;;;;2.17;1.07;;;18.90;82.60;;;;;;10471428;28;20223;-68
2021/09/28 05:46:05;;;;;;;3.60;1.17;;;18.90;82.70;;;;;;10454954;28;20185;-68
2021/09/28 05:51:29;;;;;;;1.90;1.07;;;18.90;82.70;;;;;;10455212;28;20224;-68
2021/09/28 05:56:54;;;;;;;2.73;1.00;;;18.90;82.70;;;;;;10496535;28;20346;-68
2021/09/28 06:02:18;;;;;;;2.97;1.30;;;18.90;82.70;;;;;;10489668;28;20197;-68
2021/09/28 06:07:40;;;;;;;2.93;1.20;;;18.90;82.60;;;;;;10477315;28;20362;-70
2021/09/28 06:13:04;;;;;;;2.93;1.00;;;18.90;82.60;;;;;;10459469;28;20201;-69
2021/09/28 06:18:26;;;;;;;4.07;1.10;;;18.90;82.60;;;;;;10470634;28;20224;-70
2021/09/28 06:23:48;;;;;;;2.90;1.20;;;18.90;82.60;;;;;;10458081;28;20660;-69
2021/09/28 06:29:12;;;;;;;2.07;1.10;;;18.90;82.60;;;;;;10489088;28;20224;-70
2021/09/28 06:34:34;;;;;;;1.70;1.00;;;18.90;82.70;;;;;;10489698;28;20227;-68
2021/09/28 06:39:56;;;;;;;2.27;1.20;;;18.90;82.70;;;;;;10492645;28;20591;-68
2021/09/28 06:45:20;;;;;;;2.40;1.27;;;18.90;82.80;;;;;;10494271;28;20196;-68
2021/09/28 06:50:43;;;;;;;1.57;0.97;;;19.00;82.90;;;;;;10461082;28;20580;-70
2021/09/28 06:56:05;;;;;;;2.40;1.00;;;19.00;83.00;;;;;;10478951;28;20212;-69
2021/09/28 07:01:29;;;;;;;1.67;0.80;;;19.00;83.00;;;;;;10484899;28;20189;-68
2021/09/28 07:06:51;;;;;;;2.17;0.97;;;19.00;83.10;;;;;;10464485;28;20212;-69
2021/09/28 07:12:13;;;;;;;2.00;1.03;;;19.00;83.20;;;;;;10487147;28;20200;-69
2021/09/28 07:17:36;;;;;;;2.33;0.90;;;19.00;83.20;;;;;;10466806;28;20228;-69
2021/09/28 07:22:58;;;;;;;4.53;0.90;;;19.00;83.20;;;;;;10451797;28;20193;-69
2021/09/28 07:28:21;;;;;;;2.60;1.10;;;19.00;83.50;;;;;;10475924;28;20217;-69
2021/09/28 07:33:44;;;;;;;2.20;0.80;;;19.10;84.00;;;;;;10447026;28;20192;-70
2021/09/28 07:39:06;;;;;;;2.63;1.33;;;19.10;83.80;;;;;;10478049;28;20216;-70
2021/09/28 07:44:29;;;;;;;2.63;1.63;;;19.10;82.80;;;;;;10450855;28;20192;-68
2021/09/28 07:49:52;;;;;;;3.07;1.40;;;19.00;82.00;;;;;;10487036;28;20556;-68
2021/09/28 07:55:14;;;;;;;3.63;1.60;;;19.00;81.80;;;;;;10492000;28;20208;-67
2021/09/28 08:00:39;;;;;;;2.30;1.33;;;19.00;81.70;;;;;;10489347;28;20220;-68
2021/09/28 08:06:03;;;;;;;3.03;1.63;;;19.00;81.40;;;;;;10475161;28;20262;-69
2021/09/28 08:11:25;;;;;;;2.50;1.47;;;19.00;81.20;;;;;;10492799;28;20203;-69
2021/09/28 08:16:47;;;;;;;3.77;1.63;;;19.00;81.10;;;;;;10492847;28;20224;-69
2021/09/28 08:22:13;;;;;;;2.73;1.43;;;19.00;80.90;;;;;;10492208;28;20196;-69
2021/09/28 08:33:15;;;;;;;2.70;1.70;;;19.00;80.90;;;;;;10451330;28;20223;-69
2021/09/28 08:38:38;;;;;;;5.00;1.97;;;18.90;80.80;;;;;;10484898;28;20223;-69
2021/09/28 08:44:00;;;;;;;4.77;2.17;;;18.90;80.70;;;;;;10490632;28;20197;-69
2021/09/28 08:49:23;;;;;;;5.57;2.17;;;18.90;80.60;;;;;;10465490;28;20691;-69
2021/09/28 08:54:46;;;;;;;4.50;2.20;;;18.90;80.80;;;;;;10457357;28;20216;-69
2021/09/28 09:00:22;;;;;;;5.47;2.03;;;18.90;80.60;;;;;;10482022;28;20617;-69
2021/09/28 09:05:47;;;;;;;3.70;2.13;;;18.90;80.60;;;;;;10482334;28;20188;-68
2021/09/28 09:11:12;;;;;;;4.50;2.23;;;18.80;80.50;;;;;;10485999;28;20318;-70
2021/09/28 09:16:35;;;;;;;4.07;2.17;;;18.80;80.40;;;;;;10455957;28;20225;-69
2021/09/28 09:22:00;;;;;;;4.47;2.33;;;18.90;80.40;;;;;;10457214;28;20307;-69
2021/09/28 09:27:32;;;;;;;2.77;1.53;;;18.90;80.30;;;;;;10456346;28;20213;-68
2021/09/28 09:32:57;;;;;;;3.23;1.83;;;18.90;81.20;;;;;;10470179;28;20233;-68
2021/09/28 09:38:19;;;;;;;3.77;1.70;;;18.90;81.60;;;;;;10455896;28;20213;-68
2021/09/28 09:43:44;;;;;;;2.13;1.30;;;18.90;81.60;;;;;;10462899;28;20196;-69
2021/09/28 09:49:07;;;;;;;1.73;1.20;;;19.00;81.60;;;;;;10488233;28;20224;-68
2021/09/28 09:54:34;;;;;;;3.00;1.50;;;19.00;81.60;;;;;;10497069;28;20291;-68
2021/09/28 09:59:57;;;;;;;2.90;1.40;;;19.00;81.70;;;;;;10472395;28;20223;-68
2021/09/28 10:05:20;;;;;;;1.57;1.07;;;19.00;81.60;;;;;;10463501;28;20193;-68
2021/09/28 10:10:43;;;;;;;1.67;0.90;;;19.00;81.70;;;;;;10454775;28;20221;-68
2021/09/28 10:16:44;;;;;;;3.17;1.23;;;19.00;81.70;;;;;;10454751;28;20216;-68
2021/09/28 10:22:08;;;;;;;4.53;1.50;;;19.00;81.70;;;;;;10460433;28;20189;-68
2021/09/28 10:27:31;;;;;;;2.40;0.90;;;19.00;81.80;;;;;;10464160;28;20209;-68
2021/09/28 10:32:53;;;;;;;2.00;1.10;;;19.00;81.90;;;;;;10480696;28;21060;-68
2021/09/28 10:38:16;;;;;;;1.70;1.10;;;19.00;81.90;;;;;;10494734;28;20698;-68
2021/09/28 10:43:38;;;;;;;2.53;1.00;;;19.00;81.90;;;;;;10491997;28;20792;-68
2021/09/28 10:49:24;;;;;;;3.33;1.20;;;19.00;82.00;;;;;;10471031;28;20216;-68
2021/09/28 10:55:19;;;;;;;1.30;0.80;;;19.00;81.90;;;;;;10488078;28;20212;-68
2021/09/28 11:01:11;;;;;;;1.63;0.90;;;19.00;81.90;;;;;;10452293;28;20220;-68
2021/09/28 11:07:00;;;;;;;2.37;1.03;;;19.00;81.90;;;;;;10489925;28;20196;-68
2021/09/28 11:12:26;;;;;;;1.33;0.83;;;18.90;81.90;;;;;;10602392;22;20221;-60
2021/09/28 11:17:48;;;;;;;2.50;1.30;;;19.00;82.00;;;;;;10476016;28;20258;-60
2021/09/28 11:23:12;;;;;;;1.80;1.47;;;19.00;81.70;;;;;;10490574;28;20208;-60
2021/09/28 11:28:36;;;;;;;3.50;1.40;;;18.90;81.40;;;;;;10481616;28;20662;-60
2021/09/28 11:34:00;;;;;;;2.00;1.33;;;18.90;81.30;;;;;;10489068;28;20818;-63
2021/09/28 11:39:22;;;;;;;2.60;1.30;;;18.90;81.40;;;;;;10451592;28;20224;-59
2021/09/28 11:44:49;;;;;;;1.90;1.10;;;18.90;81.80;;;;;;10474474;28;20200;-60
2021/09/28 11:50:11;;;;;;;1.70;0.90;;;18.90;82.20;;;;;;10483532;28;20215;-60
2021/09/28 11:55:33;;;;;;;2.73;1.20;;;18.90;82.30;;;;;;10484389;28;20686;-60
2021/09/28 12:00:57;;;;;;;4.03;1.53;;;18.90;82.40;;;;;;10483193;28;20220;-59
2021/09/28 12:06:27;;;;;;;2.13;1.50;;;18.90;82.10;;;;;;10450495;28;20193;-60
2021/09/28 12:12:02;;;;;;;1.30;1.20;;;18.90;81.70;;;;;;10442568;28;20313;-60
2021/09/28 12:17:34;;;;;;;2.37;1.00;;;18.90;82.10;;;;;;10454190;28;20220;-58
2021/09/28 12:23:01;;;;;;;2.73;1.13;;;18.90;82.30;;;;;;10490257;28;20251;-59
2021/09/28 12:28:23;;;;;;;2.60;1.23;;;18.90;82.30;;;;;;10465778;28;20196;-60
2021/09/28 12:33:57;;;;;;;2.00;1.40;;;18.90;82.30;;;;;;10492504;28;20216;-59
2021/09/28 12:39:31;;;;;;;2.30;1.33;;;18.90;82.30;;;;;;10464813;28;20221;-59
2021/09/28 12:44:58;;;;;;;3.13;1.63;;;18.90;82.30;;;;;;10491344;28;20193;-59
2021/09/28 12:50:25;;;;;;;3.27;1.50;;;18.90;82.30;;;;;;10450290;28;20221;-60
2021/09/28 12:55:47;;;;;;;1.50;1.20;;;18.90;82.20;;;;;;10453188;28;20213;-60
2021/09/28 13:01:09;;;;;;;4.60;1.87;;;18.90;82.20;;;;;;10449213;28;21052;-60
2021/09/28 13:06:37;;;;;;;2.87;1.43;;;18.90;82.10;;;;;;10450857;28;20201;-61
2021/09/28 13:11:59;;;;;;;3.13;1.47;;;18.90;82.20;;;;;;10472651;28;20236;-62
2021/09/28 13:17:21;;;;;;;1.67;1.53;;;18.90;82.00;;;;;;10464135;28;20723;-62
2021/09/28 13:22:51;;;;;;;2.43;1.47;;;18.90;81.80;;;;;;10496046;28;20224;-62
2021/09/28 13:28:14;;;;;;;2.67;1.43;;;18.90;81.70;;;;;;10473707;28;20200;-61
2021/09/28 13:33:36;;;;;;;2.63;1.20;;;19.00;81.70;;;;;;10472601;28;20208;-62
2021/09/28 13:39:01;;;;;;;2.23;1.30;;;19.00;81.70;;;;;;10483105;28;20870;-63
2021/09/28 13:44:23;;;;;;;2.37;1.50;;;18.90;81.80;;;;;;10492079;28;20678;-61
2021/09/28 13:49:45;;;;;;;3.67;1.70;;;19.00;81.90;;;;;;10465462;28;20209;-61
2021/09/28 13:55:09;;;;;;;3.77;1.50;;;19.00;81.70;;;;;;10494933;28;20887;-63
2021/09/28 14:00:32;;;;;;;2.47;1.70;;;19.00;81.70;;;;;;10499219;28;20231;-62
2021/09/28 14:05:54;;;;;;;3.27;1.73;;;19.00;81.40;;;;;;10462577;28;20196;-63
2021/09/28 14:11:18;;;;;;;2.63;1.43;;;18.90;81.20;;;;;;10473659;28;20228;-63
2021/09/28 14:16:40;;;;;;;2.17;1.60;;;19.00;81.20;;;;;;10484746;28;20283;-63
2021/09/28 14:22:02;;;;;;;3.03;1.57;;;19.00;81.30;;;;;;10498213;28;20697;-63
2021/09/28 14:27:26;;;;;;;2.33;1.53;;;19.00;81.30;;;;;;10492786;28;20192;-60
2021/09/28 14:32:48;;;;;;;2.37;1.37;;;18.90;81.30;;;;;;10483180;28;20204;-60
2021/09/28 14:38:10;;;;;;;4.03;1.40;;;18.90;81.40;;;;;;10499591;28;20220;-63
2021/09/28 14:43:33;;;;;;;1.90;1.40;;;18.90;81.40;;;;;;10475636;28;20221;-63
2021/09/28 14:48:56;;;;;;;2.87;1.57;;;19.00;81.50;;;;;;10466553;28;20189;-63
2021/09/28 14:54:18;;;;;;;2.33;1.37;;;18.90;81.40;;;;;;10457167;28;20197;-62
2021/09/28 14:59:41;;;;;;;3.00;1.73;;;18.90;81.40;;;;;;10455961;28;20217;-62
2021/09/28 15:05:04;;;;;;;1.30;1.20;;;18.90;81.50;;;;;;10456103;28;20197;-61
2021/09/28 15:10:27;;;;;;;2.90;1.40;;;18.90;81.40;;;;;;10450973;28;20229;-62
2021/09/28 15:15:51;;;;;;;1.97;1.53;;;18.90;81.40;;;;;;10454684;28;20213;-63
2021/09/28 15:21:13;;;;;;;2.20;1.43;;;18.90;81.40;;;;;;10454501;28;20255;-62
2021/09/28 15:26:36;;;;;;;2.77;1.63;;;18.90;81.40;;;;;;10448525;28;20189;-61
2021/09/28 15:32:02;;;;;;;3.60;1.53;;;18.90;81.40;;;;;;10450443;28;20216;-61
2021/09/28 15:37:28;;;;;;;5.57;1.50;;;18.90;81.40;;;;;;10475993;28;20574;-61
2021/09/28 15:42:50;;;;;;;1.57;1.47;;;18.90;81.40;;;;;;10489328;28;20640;-58
2021/09/28 15:48:13;;;;;;;2.60;1.80;;;18.90;81.40;;;;;;10449415;28;20197;-56
2021/09/28 15:53:36;;;;;;;2.87;1.63;;;18.90;81.40;;;;;;10485113;28;20212;-55
2021/09/28 15:58:58;;;;;;;3.73;1.67;;;18.90;81.30;;;;;;10458641;28;20216;-60
2021/09/28 16:04:23;;;;;;;2.97;1.47;;;18.90;81.30;;;;;;10476403;28;20208;-58
2021/09/28 16:09:45;;;;;;;4.93;1.73;;;18.90;81.40;;;;;;10483887;28;20309;-55
2021/09/28 16:15:08;;;;;;;2.30;1.50;;;18.90;81.40;;;;;;10465520;28;20208;-56
2021/09/28 16:20:31;;;;;;;1.67;1.37;;;18.90;81.40;;;;;;10459373;28;20220;-56
2021/09/28 16:25:53;;;;;;;2.20;1.33;;;18.90;81.50;;;;;;10458300;28;20192;-60
2021/09/28 16:31:16;;;;;;;2.03;1.33;;;18.90;81.50;;;;;;10497639;28;20220;-59
2021/09/28 16:36:39;;;;;;;3.00;1.50;;;18.90;81.60;;;;;;10496435;28;20215;-60
2021/09/28 16:42:01;;;;;;;4.00;1.75;;;18.90;81.60;;;;;;10470736;28;20809;-61
2021/09/28 16:47:23;;;;;;;2.83;1.60;;;19.30;79.90;;;;;;10465428;28;20429;-59
2021/09/28 16:52:47;;;;;;;4.27;1.67;;;19.40;79.80;;;;;;10474391;28;20220;-59
2021/09/28 16:58:09;;;;;;;5.30;1.77;;;19.10;80.40;;;;;;10460601;28;20216;-58
2021/09/28 17:03:31;;;;;;;3.73;1.60;;;19.00;81.00;;;;;;10458999;28;20221;-60
2021/09/28 17:08:54;;;;;;;2.00;1.47;;;19.00;81.20;;;;;;10475262;28;20204;-60
2021/09/28 17:14:17;;;;;;;3.20;1.70;;;19.00;81.40;;;;;;10509780;22;20323;-69
2021/09/28 17:19:39;;;;;;;3.83;1.77;;;19.00;81.50;;;;;;10498575;28;20825;-69
2021/09/28 17:25:03;;;;;;;2.83;1.43;;;18.90;81.50;;;;;;10456204;28;20197;-69
2021/09/28 17:30:25;;;;;;;4.30;1.87;;;18.90;82.10;;;;;;10456907;28;20220;-69
2021/09/28 17:35:47;;;;;;;3.47;1.40;;;18.90;81.60;;;;;;10453601;28;20575;-69
2021/09/28 17:41:12;;;;;;;3.20;1.53;;;18.90;81.60;;;;;;10454537;28;20569;-69
2021/09/28 17:46:34;;;;;;;2.70;1.73;;;18.90;81.60;;;;;;10454737;28;20186;-69
2021/09/28 17:51:59;;;;;;;3.97;1.77;;;18.90;81.60;;;;;;10454075;28;20221;-69
2021/09/28 17:57:25;;;;;;;2.57;1.63;;;18.90;81.60;;;;;;10453529;28;20282;-68
2021/09/28 18:02:48;;;;;;;3.37;1.80;;;18.90;81.70;;;;;;10451233;28;20209;-69
2021/09/28 18:08:10;;;;;;;2.33;1.90;;;18.90;81.70;;;;;;10452850;28;20186;-69
2021/09/28 18:13:34;;;;;;;1.60;1.43;;;18.90;81.70;;;;;;10452363;28;20255;-69
2021/09/28 18:18:56;;;;;;;4.00;1.90;;;18.90;81.70;;;;;;10450870;28;20580;-69
2021/09/28 18:24:18;;;;;;;1.93;1.60;;;18.90;81.70;;;;;;10452291;28;20777;-69
2021/09/28 18:29:42;;;;;;;3.33;1.80;;;18.90;81.70;;;;;;10452386;28;20189;-69
2021/09/28 18:35:07;;;;;;;2.93;1.87;;;18.90;81.80;;;;;;10452807;28;20193;-69
2021/09/28 18:40:33;;;;;;;3.47;2.10;;;18.90;81.80;;;;;;10452715;28;20220;-69
2021/09/28 18:45:57;;;;;;;2.30;1.77;;;18.90;81.80;;;;;;10450437;28;20280;-69
2021/09/28 18:51:19;;;;;;;3.47;1.77;;;18.90;81.80;;;;;;10451062;28;20217;-68
2021/09/28 18:56:48;;;;;;;2.03;1.60;;;18.90;81.80;;;;;;10448950;28;20228;-69
2021/09/28 19:02:15;;;;;;;2.00;1.60;;;18.90;81.80;;;;;;10450115;28;20710;-69
2021/09/28 19:07:45;;;;;;;2.87;1.53;;;18.90;81.80;;;;;;10450399;28;20213;-69
2021/09/28 19:13:07;;;;;;;2.67;1.80;;;18.90;81.80;;;;;;10450842;28;20220;-69
2021/09/28 19:18:32;;;;;;;2.00;1.77;;;18.90;81.80;;;;;;10451301;28;20310;-68
2021/09/28 19:23:54;;;;;;;3.13;1.80;;;18.90;81.90;;;;;;10451872;28;20224;-69
2021/09/28 19:29:18;;;;;;;1.93;1.40;;;18.90;81.90;;;;;;10452235;28;20189;-69
2021/09/28 19:34:43;;;;;;;2.77;1.77;;;18.90;81.90;;;;;;10452664;28;20217;-69
2021/09/28 19:40:08;;;;;;;3.40;2.03;;;18.90;81.90;;;;;;10452263;28;20217;-69
2021/09/28 19:45:35;;;;;;;3.73;2.13;;;18.90;81.90;;;;;;10454510;28;20212;-69
2021/09/28 19:51:01;;;;;;;2.30;1.80;;;18.90;81.90;;;;;;10465281;28;20216;-70
2021/09/28 19:56:44;;;;;;;2.47;1.90;;;18.90;81.90;;;;;;10450425;28;20300;-68
2021/09/28 20:02:13;;;;;;;1.63;1.53;;;18.90;81.90;;;;;;10451623;28;20216;-69
2021/09/28 20:36:03;;;;;;;4.93;1.90;;;18.80;81.90;;;;;;10409759;28;20274;-67
2021/09/28 20:41:26;;;;;;;2.27;1.70;;;18.80;81.90;;;;;;10409997;28;20217;-67
2021/09/28 20:46:49;;;;;;;1.70;1.60;;;18.80;81.90;;;;;;10428757;28;20204;-68
2021/09/28 20:52:11;;;;;;;1.87;1.53;;;18.80;81.90;;;;;;10457672;28;20208;-67
2021/09/28 20:57:34;;;;;;;3.40;2.27;;;18.80;81.90;;;;;;10457917;28;20224;-68
2021/09/28 21:02:56;;;;;;;2.23;1.73;;;18.80;81.90;;;;;;10457203;28;20221;-67
2021/09/28 21:08:19;;;;;;;2.60;2.07;;;18.80;81.90;;;;;;10457326;28;20201;-67
2021/09/28 21:13:43;;;;;;;2.00;1.80;;;18.80;81.90;;;;;;10456593;28;20252;-67
2021/09/28 21:19:05;;;;;;;2.90;2.10;;;18.80;81.90;;;;;;10455963;28;20235;-66
2021/09/28 21:24:28;;;;;;;2.60;1.70;;;18.80;81.90;;;;;;10456494;28;20217;-67
2021/09/28 21:29:51;;;;;;;2.90;1.93;;;18.80;82.00;;;;;;10456947;28;20189;-68
2021/09/28 21:35:14;;;;;;;1.80;1.70;;;18.80;81.90;;;;;;10457536;28;20576;-67
2021/09/28 21:40:36;;;;;;;2.93;1.93;;;18.80;81.90;;;;;;10456087;28;20217;-67
2021/09/28 21:46:00;;;;;;;1.90;1.80;;;18.90;82.00;;;;;;10454864;28;20272;-67
2021/09/28 21:51:25;;;;;;;2.50;2.10;;;18.90;82.00;;;;;;10455844;28;20217;-67
2021/09/28 21:56:47;;;;;;;2.17;1.80;;;18.80;81.90;;;;;;10454488;28;20217;-67
2021/09/28 22:02:10;;;;;;;2.00;1.80;;;18.80;81.90;;;;;;10454869;28;20213;-67
2021/09/28 22:07:32;;;;;;;2.30;2.10;;;18.80;81.90;;;;;;10455836;28;20189;-67
2021/09/28 22:12:55;;;;;;;2.00;1.80;;;18.80;81.90;;;;;;10454185;28;20233;-67
2021/09/28 22:18:18;;;;;;;3.37;1.90;;;18.80;81.90;;;;;;10450035;28;20221;-67
2021/09/28 22:23:40;;;;;;;2.83;1.80;;;18.80;81.90;;;;;;10454506;28;20223;-67
2021/09/28 22:29:03;;;;;;;2.77;2.17;;;18.80;81.90;;;;;;10454366;28;20204;-67
2021/09/28 22:34:26;;;;;;;2.33;1.73;;;18.80;81.90;;;;;;10454483;28;20232;-68
2021/09/28 22:39:48;;;;;;;2.20;1.90;;;18.80;82.50;;;;;;10451573;28;20224;-68
2021/09/28 22:45:11;;;;;;;2.80;1.60;;;18.80;81.90;;;;;;10453374;28;20197;-68
2021/09/28 22:50:34;;;;;;;3.17;2.10;;;18.90;82.00;;;;;;10413369;28;20588;-67
2021/09/28 22:55:56;;;;;;;2.60;1.67;;;18.80;81.90;;;;;;10437914;28;20212;-67
2021/09/28 23:01:19;;;;;;;2.70;1.80;;;18.80;81.90;;;;;;10452883;28;20592;-67
2021/09/28 23:06:43;;;;;;;2.33;2.00;;;18.80;81.90;;;;;;10452212;28;20203;-67
2021/09/28 23:12:05;;;;;;;3.23;1.83;;;18.80;81.90;;;;;;10476204;22;20242;-68
2021/09/28 23:17:28;;;;;;;3.00;1.80;;;18.80;81.90;;;;;;10492607;28;20231;-68
2021/09/28 23:22:51;;;;;;;2.60;2.03;;;18.80;81.90;;;;;;10493029;28;20709;-68
2021/09/28 23:28:13;;;;;;;2.23;1.50;;;18.80;81.90;;;;;;10493057;28;20695;-68
2021/09/28 23:33:36;;;;;;;2.70;1.90;;;18.80;81.90;;;;;;10492384;28;20231;-68
2021/09/28 23:38:59;;;;;;;2.40;1.70;;;18.80;81.90;;;;;;10506223;28;20220;-68
2021/09/28 23:44:21;;;;;;;2.07;1.63;;;18.80;81.90;;;;;;10499387;28;20220;-68
2021/09/28 23:49:43;;;;;;;3.17;1.90;;;18.80;81.80;;;;;;10491897;28;20659;-68
2021/09/28 23:55:08;;;;;;;2.00;1.80;;;18.80;81.80;;;;;;10492327;28;20197;-68
